sensor_id;sensor_type;location;lat;lon;timestamp;P1;durP1;ratioP1;P2;durP2;ratioP2
56997;SDS011;42890;44.244;22.530;2022-07-06T00:01:38;14.52;;;13.10;;
56997;SDS011;42890;44.244;22.530;2022-07-06T00:04:04;16.88;;;14.23;;
56997;SDS011;42890;44.244;22.530;2022-07-06T00:06:31;13.85;;;12.57;;
56997;SDS011;42890;44.244;22.530;2022-07-06T00:08:57;15.90;;;13.40;;
56997;SDS011;42890;44.244;22.530;2022-07-06T00:11:23;12.60;;;11.32;;
56997;SDS011;42890;44.244;22.530;2022-07-06T00:13:50;13.95;;;11.45;;
56997;SDS011;42890;44.244;22.530;2022-07-06T00:16:16;13.48;;;11.98;;
56997;SDS011;42890;44.244;22.530;2022-07-06T00:18:42;14.40;;;11.35;;
56997;SDS011;42890;44.244;22.530;2022-07-06T00:21:09;14.60;;;11.50;;
56997;SDS011;42890;44.244;22.530;2022-07-06T00:23:35;13.80;;;12.27;;
56997;SDS011;42890;44.244;22.530;2022-07-06T00:26:01;14.73;;;11.88;;
56997;SDS011;42890;44.244;22.530;2022-07-06T00:28:27;26.15;;;12.05;;
56997;SDS011;42890;44.244;22.530;2022-07-06T00:30:53;12.13;;;10.55;;
56997;SDS011;42890;44.244;22.530;2022-07-06T00:33:20;13.02;;;11.43;;
56997;SDS011;42890;44.244;22.530;2022-07-06T00:35:46;11.93;;;9.88;;
56997;SDS011;42890;44.244;22.530;2022-07-06T00:38:12;13.43;;;10.73;;
56997;SDS011;42890;44.244;22.530;2022-07-06T00:40:38;12.32;;;9.70;;
56997;SDS011;42890;44.244;22.530;2022-07-06T00:43:04;12.73;;;9.63;;
56997;SDS011;42890;44.244;22.530;2022-07-06T00:45:30;15.55;;;9.70;;
56997;SDS011;42890;44.244;22.530;2022-07-06T00:47:56;10.95;;;9.63;;
56997;SDS011;42890;44.244;22.530;2022-07-06T00:50:23;10.95;;;9.73;;
56997;SDS011;42890;44.244;22.530;2022-07-06T00:52:57;10.65;;;9.52;;
56997;SDS011;42890;44.244;22.530;2022-07-06T00:55:26;10.90;;;9.50;;
56997;SDS011;42890;44.244;22.530;2022-07-06T00:57:52;9.60;;;8.70;;
56997;SDS011;42890;44.244;22.530;2022-07-06T01:00:20;10.07;;;9.18;;
56997;SDS011;42890;44.244;22.530;2022-07-06T01:02:46;11.57;;;8.35;;
56997;SDS011;42890;44.244;22.530;2022-07-06T01:05:13;9.02;;;8.05;;
56997;SDS011;42890;44.244;22.530;2022-07-06T01:07:44;12.13;;;8.43;;
56997;SDS011;42890;44.244;22.530;2022-07-06T01:10:11;9.30;;;7.95;;
56997;SDS011;42890;44.244;22.530;2022-07-06T01:12:40;9.45;;;8.45;;
56997;SDS011;42890;44.244;22.530;2022-07-06T01:15:07;14.45;;;8.23;;
56997;SDS011;42890;44.244;22.530;2022-07-06T01:17:34;9.27;;;8.38;;
56997;SDS011;42890;44.244;22.530;2022-07-06T01:20:13;8.55;;;7.72;;
56997;SDS011;42890;44.244;22.530;2022-07-06T01:22:39;10.00;;;7.28;;
56997;SDS011;42890;44.244;22.530;2022-07-06T01:25:06;12.77;;;7.72;;
56997;SDS011;42890;44.244;22.530;2022-07-06T01:27:34;9.70;;;8.23;;
56997;SDS011;42890;44.244;22.530;2022-07-06T01:30:03;11.00;;;7.85;;
56997;SDS011;42890;44.244;22.530;2022-07-06T01:32:30;8.85;;;8.05;;
56997;SDS011;42890;44.244;22.530;2022-07-06T01:34:56;13.35;;;8.27;;
56997;SDS011;42890;44.244;22.530;2022-07-06T01:37:22;9.77;;;7.63;;
56997;SDS011;42890;44.244;22.530;2022-07-06T01:39:48;8.23;;;7.35;;
56997;SDS011;42890;44.244;22.530;2022-07-06T01:42:14;11.20;;;7.60;;
56997;SDS011;42890;44.244;22.530;2022-07-06T01:44:42;7.82;;;7.03;;
56997;SDS011;42890;44.244;22.530;2022-07-06T01:47:09;9.93;;;6.75;;
56997;SDS011;42890;44.244;22.530;2022-07-06T01:49:35;11.05;;;7.90;;
56997;SDS011;42890;44.244;22.530;2022-07-06T01:52:01;7.57;;;6.97;;
56997;SDS011;42890;44.244;22.530;2022-07-06T01:54:27;8.38;;;7.53;;
56997;SDS011;42890;44.244;22.530;2022-07-06T01:56:53;7.88;;;7.05;;
56997;SDS011;42890;44.244;22.530;2022-07-06T01:59:20;9.13;;;7.57;;
56997;SDS011;42890;44.244;22.530;2022-07-06T02:01:46;8.93;;;8.13;;
56997;SDS011;42890;44.244;22.530;2022-07-06T02:04:12;10.20;;;7.00;;
56997;SDS011;42890;44.244;22.530;2022-07-06T02:06:38;9.45;;;8.55;;
56997;SDS011;42890;44.244;22.530;2022-07-06T02:09:04;9.45;;;7.68;;
56997;SDS011;42890;44.244;22.530;2022-07-06T02:11:30;12.60;;;8.38;;
56997;SDS011;42890;44.244;22.530;2022-07-06T02:13:56;11.70;;;7.43;;
56997;SDS011;42890;44.244;22.530;2022-07-06T02:16:23;8.82;;;7.80;;
56997;SDS011;42890;44.244;22.530;2022-07-06T02:18:49;14.15;;;7.65;;
56997;SDS011;42890;44.244;22.530;2022-07-06T02:21:15;8.52;;;7.22;;
56997;SDS011;42890;44.244;22.530;2022-07-06T02:23:41;9.98;;;7.75;;
56997;SDS011;42890;44.244;22.530;2022-07-06T02:26:07;9.07;;;6.95;;
56997;SDS011;42890;44.244;22.530;2022-07-06T02:28:33;13.68;;;7.72;;
56997;SDS011;42890;44.244;22.530;2022-07-06T02:30:59;8.23;;;6.65;;
56997;SDS011;42890;44.244;22.530;2022-07-06T02:33:26;8.35;;;6.30;;
56997;SDS011;42890;44.244;22.530;2022-07-06T02:35:52;11.23;;;7.20;;
56997;SDS011;42890;44.244;22.530;2022-07-06T02:38:18;9.98;;;7.07;;
56997;SDS011;42890;44.244;22.530;2022-07-06T02:40:44;7.35;;;6.63;;
56997;SDS011;42890;44.244;22.530;2022-07-06T02:43:10;8.27;;;6.40;;
56997;SDS011;42890;44.244;22.530;2022-07-06T02:45:36;10.57;;;7.10;;
56997;SDS011;42890;44.244;22.530;2022-07-06T02:48:03;10.48;;;6.70;;
56997;SDS011;42890;44.244;22.530;2022-07-06T02:50:29;8.50;;;6.55;;
56997;SDS011;42890;44.244;22.530;2022-07-06T02:52:55;7.10;;;6.47;;
56997;SDS011;42890;44.244;22.530;2022-07-06T02:55:21;8.32;;;6.60;;
56997;SDS011;42890;44.244;22.530;2022-07-06T02:57:48;8.45;;;6.45;;
56997;SDS011;42890;44.244;22.530;2022-07-06T03:00:14;8.38;;;6.72;;
56997;SDS011;42890;44.244;22.530;2022-07-06T03:02:40;9.88;;;6.60;;
56997;SDS011;42890;44.244;22.530;2022-07-06T03:05:06;7.00;;;6.25;;
56997;SDS011;42890;44.244;22.530;2022-07-06T03:07:32;8.57;;;6.32;;
56997;SDS011;42890;44.244;22.530;2022-07-06T03:09:58;8.38;;;6.70;;
56997;SDS011;42890;44.244;22.530;2022-07-06T03:12:25;9.32;;;6.85;;
56997;SDS011;42890;44.244;22.530;2022-07-06T03:14:51;7.40;;;6.80;;
56997;SDS011;42890;44.244;22.530;2022-07-06T03:17:17;9.68;;;7.15;;
56997;SDS011;42890;44.244;22.530;2022-07-06T03:19:43;7.50;;;6.80;;
56997;SDS011;42890;44.244;22.530;2022-07-06T03:22:09;10.40;;;6.53;;
56997;SDS011;42890;44.244;22.530;2022-07-06T03:24:35;13.02;;;7.80;;
56997;SDS011;42890;44.244;22.530;2022-07-06T03:27:01;8.55;;;7.70;;
56997;SDS011;42890;44.244;22.530;2022-07-06T03:29:27;7.70;;;6.70;;
56997;SDS011;42890;44.244;22.530;2022-07-06T03:31:54;10.27;;;7.60;;
56997;SDS011;42890;44.244;22.530;2022-07-06T03:34:20;9.02;;;6.85;;
56997;SDS011;42890;44.244;22.530;2022-07-06T03:36:46;14.15;;;8.82;;
56997;SDS011;42890;44.244;22.530;2022-07-06T03:39:12;9.77;;;7.00;;
56997;SDS011;42890;44.244;22.530;2022-07-06T03:41:38;7.57;;;6.70;;
56997;SDS011;42890;44.244;22.530;2022-07-06T03:44:04;9.40;;;6.80;;
56997;SDS011;42890;44.244;22.530;2022-07-06T03:46:30;7.80;;;6.75;;
56997;SDS011;42890;44.244;22.530;2022-07-06T03:48:57;11.88;;;6.05;;
56997;SDS011;42890;44.244;22.530;2022-07-06T03:51:23;8.60;;;6.30;;
56997;SDS011;42890;44.244;22.530;2022-07-06T03:53:49;8.93;;;6.72;;
56997;SDS011;42890;44.244;22.530;2022-07-06T03:56:15;8.43;;;6.95;;
56997;SDS011;42890;44.244;22.530;2022-07-06T03:58:54;7.18;;;5.90;;
56997;SDS011;42890;44.244;22.530;2022-07-06T04:01:20;7.22;;;6.53;;
56997;SDS011;42890;44.244;22.530;2022-07-06T04:03:46;11.93;;;6.88;;
56997;SDS011;42890;44.244;22.530;2022-07-06T04:06:12;8.07;;;7.28;;
56997;SDS011;42890;44.244;22.530;2022-07-06T04:08:38;11.95;;;8.15;;
56997;SDS011;42890;44.244;22.530;2022-07-06T04:11:05;10.68;;;6.70;;
56997;SDS011;42890;44.244;22.530;2022-07-06T04:13:31;8.15;;;6.95;;
56997;SDS011;42890;44.244;22.530;2022-07-06T04:15:57;12.70;;;7.05;;
56997;SDS011;42890;44.244;22.530;2022-07-06T04:18:24;12.45;;;7.97;;
56997;SDS011;42890;44.244;22.530;2022-07-06T04:20:50;9.13;;;8.32;;
56997;SDS011;42890;44.244;22.530;2022-07-06T04:23:16;12.07;;;8.13;;
56997;SDS011;42890;44.244;22.530;2022-07-06T04:25:42;9.18;;;8.05;;
56997;SDS011;42890;44.244;22.530;2022-07-06T04:28:08;9.90;;;8.02;;
56997;SDS011;42890;44.244;22.530;2022-07-06T04:30:34;13.43;;;8.77;;
56997;SDS011;42890;44.244;22.530;2022-07-06T04:33:00;10.73;;;9.82;;
56997;SDS011;42890;44.244;22.530;2022-07-06T04:35:26;10.70;;;9.52;;
56997;SDS011;42890;44.244;22.530;2022-07-06T04:37:53;11.80;;;10.50;;
56997;SDS011;42890;44.244;22.530;2022-07-06T04:40:19;11.55;;;10.45;;
56997;SDS011;42890;44.244;22.530;2022-07-06T04:42:45;13.38;;;10.63;;
56997;SDS011;42890;44.244;22.530;2022-07-06T04:45:11;11.55;;;10.45;;
56997;SDS011;42890;44.244;22.530;2022-07-06T04:47:37;13.63;;;11.27;;
56997;SDS011;42890;44.244;22.530;2022-07-06T04:50:04;13.13;;;11.77;;
56997;SDS011;42890;44.244;22.530;2022-07-06T04:52:30;14.77;;;13.48;;
56997;SDS011;42890;44.244;22.530;2022-07-06T04:54:56;16.70;;;15.18;;
56997;SDS011;42890;44.244;22.530;2022-07-06T04:57:22;17.58;;;15.80;;
56997;SDS011;42890;44.244;22.530;2022-07-06T04:59:51;17.23;;;15.80;;
56997;SDS011;42890;44.244;22.530;2022-07-06T05:02:17;18.85;;;17.13;;
56997;SDS011;42890;44.244;22.530;2022-07-06T05:04:43;20.95;;;19.08;;
56997;SDS011;42890;44.244;22.530;2022-07-06T05:07:09;20.00;;;18.40;;
56997;SDS011;42890;44.244;22.530;2022-07-06T05:09:36;22.42;;;20.52;;
56997;SDS011;42890;44.244;22.530;2022-07-06T05:12:02;20.23;;;18.52;;
56997;SDS011;42890;44.244;22.530;2022-07-06T05:14:28;22.50;;;20.60;;
56997;SDS011;42890;44.244;22.530;2022-07-06T05:16:54;21.48;;;19.70;;
56997;SDS011;42890;44.244;22.530;2022-07-06T05:19:20;19.98;;;17.95;;
56997;SDS011;42890;44.244;22.530;2022-07-06T05:21:46;22.45;;;20.35;;
56997;SDS011;42890;44.244;22.530;2022-07-06T05:24:12;20.60;;;18.95;;
56997;SDS011;42890;44.244;22.530;2022-07-06T05:26:40;19.55;;;17.92;;
56997;SDS011;42890;44.244;22.530;2022-07-06T05:29:06;20.20;;;18.27;;
56997;SDS011;42890;44.244;22.530;2022-07-06T05:31:32;18.10;;;16.65;;
56997;SDS011;42890;44.244;22.530;2022-07-06T05:34:01;18.60;;;16.73;;
56997;SDS011;42890;44.244;22.530;2022-07-06T05:36:27;17.25;;;15.75;;
56997;SDS011;42890;44.244;22.530;2022-07-06T05:38:53;15.80;;;14.30;;
56997;SDS011;42890;44.244;22.530;2022-07-06T05:41:20;14.68;;;13.48;;
56997;SDS011;42890;44.244;22.530;2022-07-06T05:43:46;14.43;;;13.27;;
56997;SDS011;42890;44.244;22.530;2022-07-06T05:46:12;13.82;;;12.63;;
56997;SDS011;42890;44.244;22.530;2022-07-06T05:48:38;14.40;;;13.05;;
56997;SDS011;42890;44.244;22.530;2022-07-06T05:51:23;12.35;;;11.07;;
56997;SDS011;42890;44.244;22.530;2022-07-06T05:53:49;12.57;;;11.07;;
56997;SDS011;42890;44.244;22.530;2022-07-06T05:56:15;12.75;;;11.65;;
56997;SDS011;42890;44.244;22.530;2022-07-06T05:58:41;11.93;;;10.60;;
56997;SDS011;42890;44.244;22.530;2022-07-06T06:01:08;11.52;;;10.43;;
56997;SDS011;42890;44.244;22.530;2022-07-06T06:03:35;13.40;;;11.98;;
56997;SDS011;42890;44.244;22.530;2022-07-06T06:06:01;12.65;;;11.60;;
56997;SDS011;42890;44.244;22.530;2022-07-06T06:08:27;11.63;;;10.27;;
56997;SDS011;42890;44.244;22.530;2022-07-06T06:10:53;11.93;;;10.88;;
56997;SDS011;42890;44.244;22.530;2022-07-06T06:13:20;13.50;;;11.60;;
56997;SDS011;42890;44.244;22.530;2022-07-06T06:15:46;12.93;;;11.82;;
56997;SDS011;42890;44.244;22.530;2022-07-06T06:18:12;13.85;;;12.55;;
56997;SDS011;42890;44.244;22.530;2022-07-06T06:20:41;12.32;;;11.35;;
56997;SDS011;42890;44.244;22.530;2022-07-06T06:23:08;13.70;;;12.15;;
56997;SDS011;42890;44.244;22.530;2022-07-06T06:25:37;14.15;;;12.77;;
56997;SDS011;42890;44.244;22.530;2022-07-06T06:28:07;14.15;;;12.95;;
56997;SDS011;42890;44.244;22.530;2022-07-06T06:30:34;16.08;;;14.40;;
56997;SDS011;42890;44.244;22.530;2022-07-06T06:33:05;16.05;;;14.70;;
56997;SDS011;42890;44.244;22.530;2022-07-06T06:35:31;16.50;;;15.10;;
56997;SDS011;42890;44.244;22.530;2022-07-06T06:37:57;17.02;;;15.60;;
56997;SDS011;42890;44.244;22.530;2022-07-06T06:40:23;17.35;;;15.77;;
56997;SDS011;42890;44.244;22.530;2022-07-06T06:42:49;19.13;;;17.52;;
56997;SDS011;42890;44.244;22.530;2022-07-06T06:45:15;19.83;;;18.17;;
56997;SDS011;42890;44.244;22.530;2022-07-06T06:47:41;20.50;;;18.50;;
56997;SDS011;42890;44.244;22.530;2022-07-06T06:50:08;21.33;;;19.35;;
56997;SDS011;42890;44.244;22.530;2022-07-06T06:52:34;22.20;;;19.83;;
56997;SDS011;42890;44.244;22.530;2022-07-06T06:55:00;22.65;;;20.67;;
56997;SDS011;42890;44.244;22.530;2022-07-06T06:57:26;24.27;;;21.83;;
56997;SDS011;42890;44.244;22.530;2022-07-06T06:59:54;22.42;;;20.40;;
56997;SDS011;42890;44.244;22.530;2022-07-06T07:02:20;22.63;;;20.80;;
56997;SDS011;42890;44.244;22.530;2022-07-06T07:04:46;24.10;;;21.92;;
56997;SDS011;42890;44.244;22.530;2022-07-06T07:07:12;23.25;;;21.13;;
56997;SDS011;42890;44.244;22.530;2022-07-06T07:09:38;23.02;;;20.92;;
56997;SDS011;42890;44.244;22.530;2022-07-06T07:12:04;23.23;;;21.13;;
56997;SDS011;42890;44.244;22.530;2022-07-06T07:14:31;22.55;;;20.23;;
56997;SDS011;42890;44.244;22.530;2022-07-06T07:16:57;22.40;;;20.42;;
56997;SDS011;42890;44.244;22.530;2022-07-06T07:19:23;22.42;;;20.42;;
56997;SDS011;42890;44.244;22.530;2022-07-06T07:21:49;21.92;;;20.23;;
56997;SDS011;42890;44.244;22.530;2022-07-06T07:24:15;22.23;;;20.23;;
56997;SDS011;42890;44.244;22.530;2022-07-06T07:26:42;22.88;;;20.88;;
56997;SDS011;42890;44.244;22.530;2022-07-06T07:29:08;22.17;;;19.95;;
56997;SDS011;42890;44.244;22.530;2022-07-06T07:31:34;21.52;;;19.63;;
56997;SDS011;42890;44.244;22.530;2022-07-06T07:34:00;20.55;;;18.98;;
56997;SDS011;42890;44.244;22.530;2022-07-06T07:36:26;21.88;;;19.83;;
56997;SDS011;42890;44.244;22.530;2022-07-06T07:38:53;21.70;;;19.80;;
56997;SDS011;42890;44.244;22.530;2022-07-06T07:41:19;18.63;;;17.17;;
56997;SDS011;42890;44.244;22.530;2022-07-06T07:43:45;20.27;;;18.55;;
56997;SDS011;42890;44.244;22.530;2022-07-06T07:46:11;20.00;;;18.27;;
56997;SDS011;42890;44.244;22.530;2022-07-06T07:48:37;18.73;;;16.92;;
56997;SDS011;42890;44.244;22.530;2022-07-06T07:51:03;19.05;;;17.30;;
56997;SDS011;42890;44.244;22.530;2022-07-06T07:53:29;17.60;;;16.35;;
56997;SDS011;42890;44.244;22.530;2022-07-06T07:55:55;17.33;;;15.98;;
56997;SDS011;42890;44.244;22.530;2022-07-06T07:58:22;16.83;;;15.32;;
56997;SDS011;42890;44.244;22.530;2022-07-06T08:00:48;16.02;;;14.90;;
56997;SDS011;42890;44.244;22.530;2022-07-06T08:03:14;15.15;;;13.90;;
56997;SDS011;42890;44.244;22.530;2022-07-06T08:05:40;16.27;;;14.88;;
56997;SDS011;42890;44.244;22.530;2022-07-06T08:08:07;15.43;;;14.13;;
56997;SDS011;42890;44.244;22.530;2022-07-06T08:10:33;13.85;;;12.75;;
56997;SDS011;42890;44.244;22.530;2022-07-06T08:12:59;14.40;;;13.20;;
56997;SDS011;42890;44.244;22.530;2022-07-06T08:15:25;14.98;;;13.60;;
56997;SDS011;42890;44.244;22.530;2022-07-06T08:17:51;13.82;;;12.68;;
56997;SDS011;42890;44.244;22.530;2022-07-06T08:20:17;14.20;;;12.88;;
56997;SDS011;42890;44.244;22.530;2022-07-06T08:22:43;15.18;;;12.05;;
56997;SDS011;42890;44.244;22.530;2022-07-06T08:25:10;12.15;;;11.15;;
56997;SDS011;42890;44.244;22.530;2022-07-06T08:27:36;12.25;;;11.20;;
56997;SDS011;42890;44.244;22.530;2022-07-06T08:30:03;11.65;;;10.57;;
56997;SDS011;42890;44.244;22.530;2022-07-06T08:32:29;10.45;;;9.55;;
56997;SDS011;42890;44.244;22.530;2022-07-06T08:34:55;9.82;;;9.02;;
56997;SDS011;42890;44.244;22.530;2022-07-06T08:37:21;9.73;;;8.25;;
56997;SDS011;42890;44.244;22.530;2022-07-06T08:39:47;9.30;;;8.38;;
56997;SDS011;42890;44.244;22.530;2022-07-06T08:42:15;9.57;;;8.52;;
56997;SDS011;42890;44.244;22.530;2022-07-06T08:44:42;10.65;;;8.45;;
56997;SDS011;42890;44.244;22.530;2022-07-06T08:47:09;8.25;;;7.65;;
56997;SDS011;42890;44.244;22.530;2022-07-06T08:49:35;9.00;;;8.32;;
56997;SDS011;42890;44.244;22.530;2022-07-06T08:52:02;9.93;;;8.30;;
56997;SDS011;42890;44.244;22.530;2022-07-06T08:54:29;10.70;;;9.65;;
56997;SDS011;42890;44.244;22.530;2022-07-06T08:56:55;9.85;;;9.02;;
56997;SDS011;42890;44.244;22.530;2022-07-06T08:59:21;10.60;;;9.70;;
56997;SDS011;42890;44.244;22.530;2022-07-06T09:01:47;10.10;;;9.40;;
56997;SDS011;42890;44.244;22.530;2022-07-06T09:04:17;10.63;;;9.73;;
56997;SDS011;42890;44.244;22.530;2022-07-06T09:06:46;17.20;;;9.50;;
56997;SDS011;42890;44.244;22.530;2022-07-06T09:09:14;8.50;;;7.80;;
56997;SDS011;42890;44.244;22.530;2022-07-06T09:11:43;9.00;;;6.72;;
56997;SDS011;42890;44.244;22.530;2022-07-06T09:14:10;7.75;;;5.45;;
56997;SDS011;42890;44.244;22.530;2022-07-06T09:16:36;5.40;;;5.00;;
56997;SDS011;42890;44.244;22.530;2022-07-06T09:19:02;5.60;;;5.18;;
56997;SDS011;42890;44.244;22.530;2022-07-06T09:21:31;5.72;;;5.13;;
56997;SDS011;42890;44.244;22.530;2022-07-06T09:23:58;5.78;;;5.20;;
56997;SDS011;42890;44.244;22.530;2022-07-06T09:26:25;5.53;;;5.10;;
56997;SDS011;42890;44.244;22.530;2022-07-06T09:28:51;7.95;;;5.88;;
56997;SDS011;42890;44.244;22.530;2022-07-06T09:31:18;7.38;;;5.97;;
56997;SDS011;42890;44.244;22.530;2022-07-06T09:33:54;7.10;;;6.32;;
56997;SDS011;42890;44.244;22.530;2022-07-06T09:36:40;6.15;;;5.65;;
56997;SDS011;42890;44.244;22.530;2022-07-06T09:39:28;7.10;;;6.50;;
56997;SDS011;42890;44.244;22.530;2022-07-06T09:41:56;7.10;;;6.50;;
56997;SDS011;42890;44.244;22.530;2022-07-06T09:44:23;8.65;;;7.10;;
56997;SDS011;42890;44.244;22.530;2022-07-06T09:46:50;8.30;;;7.70;;
56997;SDS011;42890;44.244;22.530;2022-07-06T09:49:20;7.65;;;6.85;;
56997;SDS011;42890;44.244;22.530;2022-07-06T09:51:49;9.00;;;8.38;;
56997;SDS011;42890;44.244;22.530;2022-07-06T09:54:15;8.50;;;7.85;;
56997;SDS011;42890;44.244;22.530;2022-07-06T09:56:43;7.78;;;6.75;;
56997;SDS011;42890;44.244;22.530;2022-07-06T09:59:11;8.85;;;8.02;;
56997;SDS011;42890;44.244;22.530;2022-07-06T10:01:37;9.15;;;8.45;;
56997;SDS011;42890;44.244;22.530;2022-07-06T10:04:08;7.72;;;7.00;;
56997;SDS011;42890;44.244;22.530;2022-07-06T10:06:34;7.60;;;6.82;;
56997;SDS011;42890;44.244;22.530;2022-07-06T10:09:01;6.63;;;6.13;;
56997;SDS011;42890;44.244;22.530;2022-07-06T10:11:28;7.00;;;6.30;;
56997;SDS011;42890;44.244;22.530;2022-07-06T10:13:55;7.90;;;5.97;;
56997;SDS011;42890;44.244;22.530;2022-07-06T10:16:25;8.85;;;6.18;;
56997;SDS011;42890;44.244;22.530;2022-07-06T10:18:52;7.25;;;6.75;;
56997;SDS011;42890;44.244;22.530;2022-07-06T10:21:24;6.32;;;5.65;;
56997;SDS011;42890;44.244;22.530;2022-07-06T10:23:50;7.97;;;6.85;;
56997;SDS011;42890;44.244;22.530;2022-07-06T10:26:16;10.13;;;9.20;;
56997;SDS011;42890;44.244;22.530;2022-07-06T10:28:43;10.05;;;9.35;;
56997;SDS011;42890;44.244;22.530;2022-07-06T10:31:12;9.73;;;9.02;;
56997;SDS011;42890;44.244;22.530;2022-07-06T10:33:38;9.55;;;8.75;;
56997;SDS011;42890;44.244;22.530;2022-07-06T10:36:05;8.57;;;7.97;;
56997;SDS011;42890;44.244;22.530;2022-07-06T10:38:32;6.38;;;5.72;;
56997;SDS011;42890;44.244;22.530;2022-07-06T10:41:02;4.93;;;4.63;;
56997;SDS011;42890;44.244;22.530;2022-07-06T10:43:32;5.00;;;4.70;;
56997;SDS011;42890;44.244;22.530;2022-07-06T10:45:59;5.55;;;5.05;;
56997;SDS011;42890;44.244;22.530;2022-07-06T10:48:25;3.65;;;3.35;;
56997;SDS011;42890;44.244;22.530;2022-07-06T10:50:59;4.75;;;4.43;;
56997;SDS011;42890;44.244;22.530;2022-07-06T10:53:36;4.13;;;3.83;;
56997;SDS011;42890;44.244;22.530;2022-07-06T10:56:06;4.75;;;4.30;;
56997;SDS011;42890;44.244;22.530;2022-07-06T10:58:36;4.63;;;3.50;;
56997;SDS011;42890;44.244;22.530;2022-07-06T11:01:03;4.13;;;3.05;;
56997;SDS011;42890;44.244;22.530;2022-07-06T11:03:31;3.40;;;3.10;;
56997;SDS011;42890;44.244;22.530;2022-07-06T11:05:58;4.47;;;3.10;;
56997;SDS011;42890;44.244;22.530;2022-07-06T11:11:13;3.70;;;3.38;;
56997;SDS011;42890;44.244;22.530;2022-07-06T11:16:07;5.10;;;4.70;;
56997;SDS011;42890;44.244;22.530;2022-07-06T11:18:40;4.80;;;4.50;;
56997;SDS011;42890;44.244;22.530;2022-07-06T11:21:16;6.13;;;5.07;;
56997;SDS011;42890;44.244;22.530;2022-07-06T11:23:43;5.38;;;4.40;;
56997;SDS011;42890;44.244;22.530;2022-07-06T11:26:09;3.90;;;3.60;;
56997;SDS011;42890;44.244;22.530;2022-07-06T11:28:36;5.57;;;3.40;;
56997;SDS011;42890;44.244;22.530;2022-07-06T11:31:03;3.20;;;2.90;;
56997;SDS011;42890;44.244;22.530;2022-07-06T11:33:29;2.92;;;2.72;;
56997;SDS011;42890;44.244;22.530;2022-07-06T11:36:12;2.97;;;2.78;;
56997;SDS011;42890;44.244;22.530;2022-07-06T11:38:38;2.40;;;2.20;;
56997;SDS011;42890;44.244;22.530;2022-07-06T11:41:04;4.50;;;2.40;;
56997;SDS011;42890;44.244;22.530;2022-07-06T11:43:30;3.83;;;2.70;;
56997;SDS011;42890;44.244;22.530;2022-07-06T11:45:56;4.35;;;2.78;;
56997;SDS011;42890;44.244;22.530;2022-07-06T11:48:23;5.90;;;4.65;;
56997;SDS011;42890;44.244;22.530;2022-07-06T11:51:01;4.97;;;4.57;;
56997;SDS011;42890;44.244;22.530;2022-07-06T11:53:28;5.57;;;5.10;;
56997;SDS011;42890;44.244;22.530;2022-07-06T11:55:55;7.55;;;6.95;;
56997;SDS011;42890;44.244;22.530;2022-07-06T11:58:22;9.45;;;8.65;;
56997;SDS011;42890;44.244;22.530;2022-07-06T12:01:07;9.23;;;8.52;;
56997;SDS011;42890;44.244;22.530;2022-07-06T12:03:34;7.55;;;6.85;;
56997;SDS011;42890;44.244;22.530;2022-07-06T12:06:01;7.88;;;7.10;;
56997;SDS011;42890;44.244;22.530;2022-07-06T12:08:27;9.02;;;8.43;;
56997;SDS011;42890;44.244;22.530;2022-07-06T12:10:54;12.40;;;11.50;;
56997;SDS011;42890;44.244;22.530;2022-07-06T12:13:20;9.80;;;9.15;;
56997;SDS011;42890;44.244;22.530;2022-07-06T12:15:47;9.23;;;7.85;;
56997;SDS011;42890;44.244;22.530;2022-07-06T12:18:13;8.73;;;7.95;;
56997;SDS011;42890;44.244;22.530;2022-07-06T12:20:39;7.68;;;6.95;;
56997;SDS011;42890;44.244;22.530;2022-07-06T12:23:06;7.72;;;7.13;;
56997;SDS011;42890;44.244;22.530;2022-07-06T12:25:36;7.55;;;6.95;;
56997;SDS011;42890;44.244;22.530;2022-07-06T12:28:03;7.70;;;6.18;;
56997;SDS011;42890;44.244;22.530;2022-07-06T12:30:29;5.93;;;5.43;;
56997;SDS011;42890;44.244;22.530;2022-07-06T12:33:14;6.05;;;5.65;;
56997;SDS011;42890;44.244;22.530;2022-07-06T12:35:41;6.80;;;6.30;;
56997;SDS011;42890;44.244;22.530;2022-07-06T12:38:07;6.78;;;6.07;;
56997;SDS011;42890;44.244;22.530;2022-07-06T12:40:35;7.15;;;6.65;;
56997;SDS011;42890;44.244;22.530;2022-07-06T12:43:02;8.05;;;7.53;;
56997;SDS011;42890;44.244;22.530;2022-07-06T12:45:29;9.10;;;8.32;;
56997;SDS011;42890;44.244;22.530;2022-07-06T12:48:02;8.20;;;7.60;;
56997;SDS011;42890;44.244;22.530;2022-07-06T12:50:32;8.07;;;7.57;;
56997;SDS011;42890;44.244;22.530;2022-07-06T12:52:59;9.48;;;8.40;;
56997;SDS011;42890;44.244;22.530;2022-07-06T12:55:26;8.73;;;8.10;;
56997;SDS011;42890;44.244;22.530;2022-07-06T12:57:52;9.35;;;8.65;;
56997;SDS011;42890;44.244;22.530;2022-07-06T13:00:19;9.55;;;8.93;;
56997;SDS011;42890;44.244;22.530;2022-07-06T13:02:50;9.95;;;9.07;;
56997;SDS011;42890;44.244;22.530;2022-07-06T13:05:24;9.35;;;8.52;;
56997;SDS011;42890;44.244;22.530;2022-07-06T13:10:19;6.47;;;6.00;;
56997;SDS011;42890;44.244;22.530;2022-07-06T13:12:46;7.00;;;5.70;;
56997;SDS011;42890;44.244;22.530;2022-07-06T13:15:12;4.72;;;4.32;;
56997;SDS011;42890;44.244;22.530;2022-07-06T13:17:38;6.03;;;4.55;;
56997;SDS011;42890;44.244;22.530;2022-07-06T13:20:08;5.20;;;4.72;;
56997;SDS011;42890;44.244;22.530;2022-07-06T13:22:35;4.40;;;3.90;;
56997;SDS011;42890;44.244;22.530;2022-07-06T13:25:01;5.00;;;4.50;;
56997;SDS011;42890;44.244;22.530;2022-07-06T13:27:27;4.85;;;4.45;;
56997;SDS011;42890;44.244;22.530;2022-07-06T13:29:54;4.30;;;3.53;;
56997;SDS011;42890;44.244;22.530;2022-07-06T13:32:20;3.50;;;3.20;;
56997;SDS011;42890;44.244;22.530;2022-07-06T13:34:47;3.63;;;3.30;;
56997;SDS011;42890;44.244;22.530;2022-07-06T13:37:13;3.72;;;3.38;;
56997;SDS011;42890;44.244;22.530;2022-07-06T13:39:39;5.07;;;3.10;;
56997;SDS011;42890;44.244;22.530;2022-07-06T13:42:05;3.10;;;2.90;;
56997;SDS011;42890;44.244;22.530;2022-07-06T13:44:32;2.97;;;2.78;;
56997;SDS011;42890;44.244;22.530;2022-07-06T13:46:59;3.33;;;2.92;;
56997;SDS011;42890;44.244;22.530;2022-07-06T13:49:25;3.65;;;3.35;;
56997;SDS011;42890;44.244;22.530;2022-07-06T13:51:51;6.88;;;3.10;;
56997;SDS011;42890;44.244;22.530;2022-07-06T13:54:19;2.95;;;2.75;;
56997;SDS011;42890;44.244;22.530;2022-07-06T13:56:45;3.00;;;2.80;;
56997;SDS011;42890;44.244;22.530;2022-07-06T13:59:11;3.10;;;2.53;;
56997;SDS011;42890;44.244;22.530;2022-07-06T14:01:37;2.42;;;2.22;;
56997;SDS011;42890;44.244;22.530;2022-07-06T14:04:04;2.88;;;2.00;;
56997;SDS011;42890;44.244;22.530;2022-07-06T14:06:30;2.30;;;2.10;;
56997;SDS011;42890;44.244;22.530;2022-07-06T14:08:56;2.45;;;2.25;;
56997;SDS011;42890;44.244;22.530;2022-07-06T14:11:22;4.22;;;2.08;;
56997;SDS011;42890;44.244;22.530;2022-07-06T14:13:48;2.35;;;2.00;;
56997;SDS011;42890;44.244;22.530;2022-07-06T14:16:14;2.95;;;1.70;;
56997;SDS011;42890;44.244;22.530;2022-07-06T14:18:41;3.30;;;2.20;;
56997;SDS011;42890;44.244;22.530;2022-07-06T14:21:08;2.30;;;1.80;;
56997;SDS011;42890;44.244;22.530;2022-07-06T14:23:34;2.33;;;2.13;;
56997;SDS011;42890;44.244;22.530;2022-07-06T14:26:00;3.35;;;2.03;;
56997;SDS011;42890;44.244;22.530;2022-07-06T14:28:27;1.90;;;1.55;;
56997;SDS011;42890;44.244;22.530;2022-07-06T14:30:53;5.68;;;1.80;;